createdAt,value
2022-08-07T00:01:44.015Z,3.17
2022-08-07T00:04:15.455Z,3.33
2022-08-07T00:06:51.846Z,3.40
2022-08-07T00:09:22.841Z,3.22
2022-08-07T00:11:56.026Z,3.40
2022-08-07T00:14:31.256Z,3.50
2022-08-07T00:17:03.172Z,4.03
2022-08-07T00:20:00.077Z,3.90
2022-08-07T00:22:24.514Z,4.15
2022-08-07T00:25:16.735Z,3.58
2022-08-07T00:27:53.404Z,3.28
2022-08-07T00:30:27.121Z,3.83
2022-08-07T00:32:57.603Z,3.50
2022-08-07T00:35:27.156Z,3.70
2022-08-07T00:38:01.166Z,3.38
2022-08-07T00:40:36.455Z,4.53
2022-08-07T00:43:10.610Z,3.53
2022-08-07T00:45:57.270Z,3.67
2022-08-07T00:48:29.308Z,3.60
2022-08-07T00:51:13.431Z,3.63
2022-08-07T00:53:50.487Z,3.78
2022-08-07T00:56:30.187Z,3.55
2022-08-07T00:58:58.732Z,3.72
2022-08-07T01:01:26.533Z,3.90
2022-08-07T01:04:00.138Z,3.42
2022-08-07T01:06:29.418Z,3.65
2022-08-07T01:08:58.710Z,3.63
2022-08-07T01:12:10.117Z,3.63
2022-08-07T01:14:28.457Z,4.20
2022-08-07T01:16:57.385Z,3.15
2022-08-07T01:19:26.678Z,3.30
2022-08-07T01:21:55.671Z,3.55
2022-08-07T01:24:23.909Z,3.60
2022-08-07T01:26:52.710Z,3.72
2022-08-07T01:29:27.717Z,3.30
2022-08-07T01:31:55.903Z,3.60
2022-08-07T01:34:30.949Z,3.37
2022-08-07T01:37:00.449Z,3.90
2022-08-07T01:39:40.992Z,3.05
2022-08-07T01:42:39.772Z,3.70
2022-08-07T01:45:10.036Z,3.47
2022-08-07T01:48:19.261Z,3.55
2022-08-07T01:50:36.355Z,3.38
2022-08-07T01:53:08.787Z,2.67
2022-08-07T01:55:55.812Z,3.90
2022-08-07T01:58:29.706Z,2.78
2022-08-07T02:01:25.372Z,3.47
2022-08-07T02:06:45.893Z,3.13
2022-08-07T02:09:52.127Z,3.33
2022-08-07T02:12:19.961Z,3.10
2022-08-07T02:14:58.568Z,3.35
2022-08-07T02:17:29.384Z,2.92
2022-08-07T02:20:16.949Z,3.33
2022-08-07T02:22:46.649Z,3.08
2022-08-07T02:26:10.290Z,3.33
2022-08-07T02:28:11.307Z,2.85
2022-08-07T02:30:40.596Z,3.40
2022-08-07T02:33:10.624Z,3.83
2022-08-07T02:36:30.619Z,3.20
2022-08-07T02:38:32.367Z,2.78
2022-08-07T02:41:04.052Z,2.60
2022-08-07T02:43:33.217Z,2.80
2022-08-07T02:46:02.835Z,2.42
2022-08-07T02:48:31.203Z,2.80
2022-08-07T02:51:05.175Z,2.90
2022-08-07T02:53:39.035Z,2.83
2022-08-07T02:56:17.597Z,3.00
2022-08-07T03:01:36.462Z,2.78
2022-08-07T03:04:12.614Z,2.50
2022-08-07T03:06:44.717Z,2.70
2022-08-07T03:09:13.846Z,2.90
2022-08-07T03:11:52.136Z,2.72
2022-08-07T03:14:26.356Z,2.45
2022-08-07T03:16:57.179Z,2.70
2022-08-07T03:19:29.021Z,2.35
2022-08-07T03:22:07.141Z,2.70
2022-08-07T03:24:36.770Z,2.70
2022-08-07T03:27:08.950Z,2.63
2022-08-07T03:29:46.289Z,3.25
2022-08-07T03:32:22.679Z,3.10
2022-08-07T03:35:01.039Z,3.05
2022-08-07T03:37:46.176Z,2.92
2022-08-07T03:40:23.995Z,3.10
2022-08-07T03:42:58.947Z,3.30
2022-08-07T03:45:31.092Z,3.00
2022-08-07T03:47:59.797Z,3.15
2022-08-07T03:50:28.506Z,3.38
2022-08-07T03:52:59.456Z,2.78
2022-08-07T03:55:58.080Z,3.28
2022-08-07T03:59:04.959Z,2.90
2022-08-07T04:01:11.205Z,2.63
2022-08-07T04:03:53.133Z,3.28
2022-08-07T04:06:37.996Z,2.80
2022-08-07T04:09:15.354Z,2.85
2022-08-07T04:12:26.380Z,2.63
2022-08-07T04:14:38.599Z,2.85
2022-08-07T04:17:20.498Z,2.92
2022-08-07T04:19:52.861Z,2.88
2022-08-07T04:22:29.394Z,2.90
2022-08-07T04:25:00.994Z,2.80
2022-08-07T04:27:35.902Z,2.05
2022-08-07T04:30:11.762Z,2.67
2022-08-07T04:32:58.288Z,3.22
2022-08-07T04:35:28.543Z,2.42
2022-08-07T04:38:07.910Z,2.10
2022-08-07T04:40:52.043Z,4.40
2022-08-07T04:44:10.307Z,2.70
2022-08-07T04:46:34.360Z,2.33
2022-08-07T04:49:24.229Z,2.53
2022-08-07T04:52:03.355Z,2.67
2022-08-07T04:58:10.521Z,2.20
2022-08-07T04:58:49.632Z,2.95
2022-08-07T05:01:50.622Z,2.55
2022-08-07T05:04:47.210Z,2.47
2022-08-07T05:07:30.512Z,2.40
2022-08-07T05:10:23.267Z,2.78
2022-08-07T05:14:53.043Z,2.42
2022-08-07T05:16:17.116Z,2.90
2022-08-07T05:21:59.552Z,2.97
2022-08-07T05:24:19.924Z,2.70
2022-08-07T05:26:57.264Z,2.50
2022-08-07T05:29:38.864Z,2.58
2022-08-07T05:32:18.980Z,2.70
2022-08-07T05:37:26.000Z,2.70
2022-08-07T05:40:06.793Z,2.35
2022-08-07T05:42:43.055Z,2.72
2022-08-07T05:45:46.843Z,2.20
2022-08-07T05:48:12.551Z,3.22
2022-08-07T05:50:42.849Z,2.55
2022-08-07T05:54:13.869Z,2.30
2022-08-07T05:56:01.957Z,1.73
2022-08-07T06:01:08.440Z,2.35
2022-08-07T06:03:53.748Z,1.60
2022-08-07T06:06:29.626Z,1.95
2022-08-07T06:09:01.235Z,2.22
2022-08-07T06:11:34.207Z,2.10
2022-08-07T06:14:21.293Z,1.98
2022-08-07T06:16:57.221Z,2.00
2022-08-07T06:19:47.886Z,1.65
2022-08-07T06:22:23.512Z,2.10
2022-08-07T06:24:58.439Z,1.63
2022-08-07T06:28:00.750Z,1.88
2022-08-07T06:30:35.167Z,1.88
2022-08-07T06:33:03.837Z,2.10
2022-08-07T06:35:45.471Z,2.00
2022-08-07T06:38:20.240Z,2.30
2022-08-07T06:40:53.238Z,2.20
2022-08-07T06:43:23.780Z,2.00
2022-08-07T06:45:51.646Z,1.98
2022-08-07T06:48:25.009Z,1.75
2022-08-07T06:50:56.239Z,2.22
2022-08-07T06:54:11.703Z,1.70
2022-08-07T06:56:16.412Z,1.92
2022-08-07T07:00:12.465Z,2.00
2022-08-07T07:01:43.858Z,1.98
2022-08-07T07:04:28.203Z,2.00
2022-08-07T07:09:54.889Z,1.85
2022-08-07T07:12:53.447Z,1.40
2022-08-07T07:15:36.031Z,1.70
2022-08-07T07:18:47.164Z,1.30
2022-08-07T07:21:27.308Z,1.40
2022-08-07T07:24:12.566Z,1.38
2022-08-07T07:26:51.717Z,2.17
2022-08-07T07:29:39.463Z,1.50
2022-08-07T07:32:14.760Z,1.40
2022-08-07T07:34:57.913Z,1.63
2022-08-07T07:37:47.368Z,1.40
2022-08-07T07:40:20.565Z,1.10
2022-08-07T07:42:55.837Z,1.00
2022-08-07T07:46:37.072Z,0.98
2022-08-07T07:48:24.398Z,0.88
2022-08-07T07:51:07.911Z,1.27
2022-08-07T07:53:52.155Z,1.05
2022-08-07T07:56:30.079Z,0.90
2022-08-07T07:59:08.921Z,1.00
2022-08-07T08:02:02.430Z,1.10
2022-08-07T08:04:33.807Z,1.25
2022-08-07T08:07:02.711Z,0.90
2022-08-07T08:09:31.921Z,1.08
2022-08-07T08:12:42.897Z,1.00
2022-08-07T08:15:07.326Z,0.65
2022-08-07T08:17:58.112Z,0.90
2022-08-07T08:20:31.629Z,0.93
2022-08-07T08:23:19.453Z,1.15
2022-08-07T08:26:27.069Z,0.90
2022-08-07T08:28:58.424Z,0.80
2022-08-07T08:32:17.238Z,1.05
2022-08-07T08:34:27.276Z,0.82
2022-08-07T08:37:02.890Z,0.80
2022-08-07T08:39:39.657Z,0.90
2022-08-07T08:42:40.332Z,0.90
2022-08-07T08:46:03.080Z,0.60
2022-08-07T08:49:02.144Z,1.15
2022-08-07T08:52:00.698Z,0.52
2022-08-07T08:54:45.015Z,0.90
2022-08-07T08:57:49.464Z,0.80
2022-08-07T09:00:17.599Z,0.70
2022-08-07T09:02:58.662Z,0.70
2022-08-07T09:06:26.753Z,0.68
2022-08-07T09:09:43.706Z,0.55
2022-08-07T09:12:34.164Z,0.90
2022-08-07T09:16:24.255Z,0.93
2022-08-07T09:19:51.354Z,0.82
2022-08-07T09:22:22.977Z,0.55
2022-08-07T09:25:17.588Z,0.50
2022-08-07T09:30:00.466Z,0.60
2022-08-07T09:31:24.350Z,0.80
2022-08-07T09:34:40.803Z,0.70
2022-08-07T09:37:34.318Z,0.60
2022-08-07T09:40:27.387Z,0.63
2022-08-07T09:44:03.477Z,0.70
2022-08-07T09:47:49.764Z,0.90
2022-08-07T09:50:02.459Z,0.60
2022-08-07T09:52:37.199Z,0.50
2022-08-07T09:56:03.135Z,0.80
2022-08-07T09:59:13.789Z,0.68
2022-08-07T10:02:19.616Z,0.65
2022-08-07T10:05:59.004Z,0.45
2022-08-07T10:08:40.748Z,0.80
2022-08-07T10:12:02.473Z,0.82
2022-08-07T10:15:05.336Z,0.80
2022-08-07T10:18:21.262Z,0.70
2022-08-07T10:22:14.137Z,0.70
2022-08-07T10:24:40.912Z,0.63
2022-08-07T10:28:07.347Z,0.70
2022-08-07T10:31:17.796Z,0.60
2022-08-07T10:34:14.591Z,0.80
2022-08-07T10:37:12.481Z,1.10
2022-08-07T10:40:39.024Z,1.02
2022-08-07T10:43:13.259Z,0.70
2022-08-07T10:45:58.470Z,0.65
2022-08-07T10:48:48.860Z,0.60
2022-08-07T10:51:57.637Z,0.80
2022-08-07T10:54:24.644Z,0.85
2022-08-07T10:57:34.669Z,1.05
2022-08-07T11:00:36.579Z,1.25
2022-08-07T11:04:16.947Z,0.77
2022-08-07T11:07:56.514Z,0.65
2022-08-07T11:10:40.836Z,1.27
2022-08-07T11:14:45.419Z,0.80
2022-08-07T11:17:13.544Z,0.50
2022-08-07T11:20:11.258Z,0.63
2022-08-07T11:22:49.714Z,0.60
2022-08-07T11:25:50.343Z,0.68
2022-08-07T11:29:13.224Z,0.70
2022-08-07T11:32:05.986Z,0.52
2022-08-07T11:34:40.948Z,0.50
2022-08-07T11:37:58.415Z,0.50
2022-08-07T11:40:59.620Z,0.60
2022-08-07T11:44:12.534Z,0.70
2022-08-07T11:47:55.913Z,0.82
2022-08-07T11:51:40.816Z,0.50
2022-08-07T11:54:33.557Z,0.50
2022-08-07T11:58:00.820Z,0.68
2022-08-07T12:01:02.505Z,0.50
2022-08-07T12:04:09.522Z,0.50
2022-08-07T12:07:00.387Z,0.50
2022-08-07T12:10:17.916Z,0.40
2022-08-07T12:13:03.428Z,0.55
2022-08-07T12:16:06.564Z,0.43
2022-08-07T12:18:54.100Z,0.60
2022-08-07T12:22:36.053Z,0.50
2022-08-07T12:26:02.932Z,0.50
2022-08-07T12:28:53.969Z,0.60
2022-08-07T12:31:56.564Z,0.63
2022-08-07T12:34:38.470Z,0.50
2022-08-07T12:37:17.046Z,0.65
2022-08-07T12:39:52.701Z,0.70
2022-08-07T12:42:31.846Z,0.40
2022-08-07T12:45:12.465Z,0.60
2022-08-07T12:48:13.040Z,0.63
2022-08-07T12:51:12.864Z,0.85
2022-08-07T12:54:37.188Z,0.80
2022-08-07T12:57:09.833Z,0.50
2022-08-07T12:59:53.846Z,0.60
2022-08-07T13:03:08.141Z,0.90
2022-08-07T13:06:21.562Z,1.00
2022-08-07T13:10:20.478Z,0.65
2022-08-07T13:12:27.745Z,0.70
2022-08-07T13:15:31.746Z,1.05
2022-08-07T13:18:31.979Z,0.65
2022-08-07T13:21:35.282Z,0.70
2022-08-07T13:24:38.157Z,0.82
2022-08-07T13:28:12.801Z,0.68
2022-08-07T13:30:40.965Z,0.90
2022-08-07T13:34:33.577Z,0.70
2022-08-07T13:36:41.826Z,0.93
2022-08-07T13:40:34.124Z,0.57
2022-08-07T13:42:40.029Z,1.00
2022-08-07T13:45:21.069Z,0.90
2022-08-07T13:48:06.886Z,0.90
2022-08-07T13:50:44.787Z,0.68
2022-08-07T13:53:59.639Z,0.90
2022-08-07T13:56:35.376Z,0.70
2022-08-07T13:59:21.620Z,0.98
2022-08-07T14:02:10.373Z,0.70
2022-08-07T14:04:54.818Z,0.75
2022-08-07T14:07:28.073Z,0.63
2022-08-07T14:10:17.689Z,0.80
2022-08-07T14:13:03.654Z,0.90
2022-08-07T14:15:50.732Z,0.90
2022-08-07T14:18:30.601Z,0.60
2022-08-07T14:21:20.884Z,0.88
2022-08-07T14:24:14.085Z,0.90
2022-08-07T14:28:09.447Z,0.80
2022-08-07T14:30:07.162Z,0.77
2022-08-07T14:32:53.367Z,0.70
2022-08-07T14:35:43.288Z,0.70
2022-08-07T14:38:26.875Z,1.03
2022-08-07T14:41:04.203Z,0.88
2022-08-07T14:43:59.337Z,1.00
2022-08-07T14:46:35.910Z,0.50
2022-08-07T14:49:17.509Z,0.80
2022-08-07T14:52:03.862Z,0.73
2022-08-07T14:54:43.106Z,0.80
2022-08-07T14:57:14.895Z,0.70
2022-08-07T15:00:05.822Z,0.63
2022-08-07T15:05:26.867Z,0.98
2022-08-07T15:07:59.129Z,0.75
2022-08-07T15:10:30.056Z,0.88
2022-08-07T15:15:57.599Z,0.70
2022-08-07T15:21:45.034Z,0.80
2022-08-07T15:27:29.044Z,0.70
2022-08-07T15:30:16.122Z,0.65
2022-08-07T15:32:50.876Z,0.77
2022-08-07T15:36:02.224Z,0.82
2022-08-07T15:41:24.480Z,0.63
2022-08-07T15:44:12.448Z,0.75
2022-08-07T15:46:52.008Z,0.63
2022-08-07T15:50:05.789Z,0.82
2022-08-07T15:52:30.538Z,0.88
2022-08-07T15:55:03.401Z,0.70
2022-08-07T15:57:47.506Z,0.60
2022-08-07T16:00:31.529Z,0.70
2022-08-07T16:03:06.661Z,0.50
2022-08-07T16:05:52.594Z,1.00
2022-08-07T16:08:30.353Z,0.65
2022-08-07T16:11:26.186Z,0.82
2022-08-07T16:14:19.318Z,0.70
2022-08-07T16:18:01.578Z,0.60
2022-08-07T16:21:44.145Z,0.80
2022-08-07T16:24:09.236Z,1.30
2022-08-07T16:27:20.991Z,0.63
2022-08-07T16:30:30.639Z,1.77
2022-08-07T16:34:02.756Z,0.80
2022-08-07T16:36:31.209Z,0.60
2022-08-07T16:39:40.255Z,0.80
2022-08-07T16:42:33.791Z,0.80
2022-08-07T16:46:47.167Z,1.00
2022-08-07T16:50:27.449Z,0.90
2022-08-07T16:52:51.251Z,0.98
2022-08-07T16:55:47.127Z,0.68
2022-08-07T16:59:10.137Z,0.70
2022-08-07T17:01:42.298Z,0.73
2022-08-07T17:04:58.613Z,0.80
2022-08-07T17:07:57.842Z,0.98
2022-08-07T17:10:54.266Z,0.88
2022-08-07T17:13:41.112Z,1.17
2022-08-07T17:16:28.597Z,0.93
2022-08-07T17:19:15.779Z,0.80
2022-08-07T17:21:58.962Z,1.02
2022-08-07T17:24:53.303Z,1.48
2022-08-07T17:27:56.077Z,1.10
2022-08-07T17:30:28.659Z,1.30
2022-08-07T17:34:09.529Z,0.90
2022-08-07T17:35:55.890Z,0.80
2022-08-07T17:38:35.337Z,1.50
2022-08-07T17:42:04.580Z,0.93
2022-08-07T17:44:41.470Z,1.10
2022-08-07T17:47:42.384Z,1.17
2022-08-07T17:50:46.982Z,1.83
2022-08-07T17:53:59.835Z,1.30
2022-08-07T17:57:18.958Z,1.90
2022-08-07T17:59:56.967Z,2.85
2022-08-07T18:03:09.124Z,2.40
2022-08-07T18:09:01.897Z,1.40
2022-08-07T18:12:16.822Z,1.20
2022-08-07T18:14:59.889Z,1.10
2022-08-07T18:18:44.654Z,1.05
2022-08-07T18:21:10.478Z,1.10
2022-08-07T18:24:11.968Z,1.45
2022-08-07T18:27:38.533Z,1.00
2022-08-07T18:30:32.371Z,1.10
2022-08-07T18:33:25.288Z,1.85
2022-08-07T18:36:42.253Z,1.42
2022-08-07T18:40:05.705Z,1.27
2022-08-07T18:42:30.417Z,0.95
2022-08-07T18:45:44.923Z,0.70
2022-08-07T18:50:05.179Z,1.10
2022-08-07T18:52:34.968Z,1.00
2022-08-07T18:55:40.222Z,0.93
2022-08-07T18:58:17.869Z,0.93
2022-08-07T19:02:16.013Z,1.10
2022-08-07T19:04:59.479Z,1.10
2022-08-07T19:08:05.380Z,0.95
2022-08-07T19:10:51.822Z,0.90
2022-08-07T19:13:45.104Z,0.93
2022-08-07T19:17:08.245Z,1.50
2022-08-07T19:20:28.723Z,1.25
2022-08-07T19:23:17.956Z,1.17
2022-08-07T19:26:24.111Z,1.02
2022-08-07T19:30:57.129Z,0.90
2022-08-07T19:34:38.674Z,1.08
2022-08-07T19:37:17.811Z,1.02
2022-08-07T19:39:56.387Z,1.20
2022-08-07T19:42:40.610Z,1.13
2022-08-07T19:46:01.189Z,1.10
2022-08-07T19:48:18.740Z,1.50
2022-08-07T19:50:53.091Z,1.25
2022-08-07T19:54:31.745Z,1.40
2022-08-07T19:57:52.020Z,3.78
2022-08-07T19:59:00.114Z,2.10
2022-08-07T20:01:53.040Z,1.52
2022-08-07T20:04:31.624Z,2.03
2022-08-07T20:07:10.668Z,1.80
2022-08-07T20:10:35.994Z,1.45
2022-08-07T20:12:47.752Z,1.25
2022-08-07T20:15:23.305Z,1.25
2022-08-07T20:18:01.283Z,1.77
2022-08-07T20:20:33.762Z,1.38
2022-08-07T20:23:10.999Z,1.38
2022-08-07T20:25:56.022Z,1.25
2022-08-07T20:28:30.809Z,1.20
2022-08-07T20:30:59.263Z,1.48
2022-08-07T20:33:38.347Z,1.63
2022-08-07T20:36:09.781Z,1.40
2022-08-07T20:38:53.751Z,1.55
2022-08-07T20:41:45.923Z,2.28
2022-08-07T20:44:16.687Z,2.90
2022-08-07T20:46:46.689Z,2.20
2022-08-07T20:50:00.394Z,2.38
2022-08-07T20:52:17.730Z,2.38
2022-08-07T20:54:56.156Z,1.95
2022-08-07T20:57:29.797Z,2.20
2022-08-07T21:00:09.196Z,2.60
2022-08-07T21:03:00.695Z,2.17
2022-08-07T21:05:58.316Z,2.28
2022-08-07T21:08:41.071Z,2.50
2022-08-07T21:11:21.998Z,2.85
2022-08-07T21:14:31.598Z,2.30
2022-08-07T21:18:03.591Z,2.30
2022-08-07T21:20:04.857Z,2.25
2022-08-07T21:22:54.698Z,1.95
2022-08-07T21:25:56.253Z,2.00
2022-08-07T21:28:48.281Z,1.70
2022-08-07T21:35:12.538Z,2.05
2022-08-07T21:37:58.288Z,1.42
2022-08-07T21:40:58.342Z,1.60
2022-08-07T21:44:25.377Z,1.83
2022-08-07T21:47:50.173Z,1.50
2022-08-07T21:50:27.686Z,1.77
2022-08-07T21:53:10.785Z,1.70
2022-08-07T21:56:16.927Z,1.52
2022-08-07T21:58:59.891Z,1.27
2022-08-07T22:02:07.745Z,1.70
2022-08-07T22:04:53.637Z,2.55
2022-08-07T22:07:57.939Z,1.65
2022-08-07T22:10:35.436Z,1.20
2022-08-07T22:13:09.290Z,1.42
2022-08-07T22:16:44.426Z,2.08
2022-08-07T22:19:18.219Z,1.48
2022-08-07T22:22:28.616Z,1.55
2022-08-07T22:25:02.949Z,1.63
2022-08-07T22:28:02.915Z,1.38
2022-08-07T22:31:56.000Z,1.42
2022-08-07T22:34:13.355Z,1.42
2022-08-07T22:37:05.148Z,1.42
2022-08-07T22:40:20.374Z,1.58
2022-08-07T22:42:52.881Z,1.65
2022-08-07T22:46:21.993Z,1.40
2022-08-07T22:49:02.124Z,1.30
2022-08-07T22:52:36.544Z,1.20
2022-08-07T22:55:43.514Z,2.78
2022-08-07T22:58:42.374Z,1.30
2022-08-07T23:02:07.456Z,1.00
2022-08-07T23:06:07.222Z,1.65
2022-08-07T23:08:24.069Z,2.10
2022-08-07T23:11:28.250Z,1.40
2022-08-07T23:14:26.495Z,1.42
2022-08-07T23:17:27.486Z,1.13
2022-08-07T23:20:52.392Z,1.40
2022-08-07T23:24:06.329Z,1.60
2022-08-07T23:26:25.211Z,1.38
2022-08-07T23:29:42.570Z,1.48
2022-08-07T23:34:22.055Z,1.63
2022-08-07T23:35:37.571Z,1.13
2022-08-07T23:38:36.971Z,1.30
2022-08-07T23:41:47.737Z,1.38
2022-08-07T23:45:02.476Z,1.67
2022-08-07T23:47:42.464Z,0.95
2022-08-07T23:50:35.497Z,1.65
2022-08-07T23:53:51.025Z,1.85
2022-08-07T23:57:05.234Z,1.80
